หน้าหลัก
METAR-TAF:

METAR-TAF

ท่าอากาศยาน :

Deming, นิวเม็กซิโก, สหรัฐอเมริกา

ละติจูด: 32-15-44N, ลองจิจูด: 107-43-14W, ความสูง: 1315 ม.

การสังเกตสภาพอากาศปัจจุบัน

รายงานได้ทำขึ้นเมื่อ 37 นาทีที่แล้ว ณ เวลา 08:53 UTC
ลม 8 นอตจากตะวันตก
อุณหภูมิ 17°C
ความชื้น 25%
ความกดอากาศ 1015 hPa
ทัศนวิสัย: 16.1 กม.
ท้องฟ้าแจ่มใส

METAR: KDMN 260853Z AUTO 28008KT 10SM CLR 17/M03 A2997 RMK AO2 SLP071 T01721028 52004

เวลา: 03:30 (09:30 UTC)

การพยากรณ์

รายงานได้ทำขึ้นเมื่อ 4 ชั่วโมงและ 6 นาทีที่แล้ว ณ เวลา 05:24 UTC
การพยากรณ์มีผลตั้งแต่วันที่ 26 ณ เวลา 06 UTC จนถึงวันที่ 27 ณ เวลา 06 UTC
ลม 7 นอตจากตะวันตก
ทัศนวิสัย: 10 กม.
ท้องฟ้าแจ่มใส
จาก 26 ณ เวลา 1700 UTC
ลม 13 นอตจากตะวันตกโดยมีลมกระโชกได้ถึง22 นอต
ทัศนวิสัย: 10 กม.
ท้องฟ้าแจ่มใส
จาก 27 ณ เวลา 0200 UTC
ลม 7 นอตจากตะวันตก/ตะวันตกเฉียงเหนือ
ทัศนวิสัย: 10 กม.
ท้องฟ้าแจ่มใส

TAF: KDMN 260524Z 2606/2706 27007KT P6SM SKC FM261700 26013G22KT P6SM SKC FM270200 29007KT P6SM SKC

สังเกตการณ์สภาพอากาศและพยากรณ์อากาศของสนามบินมากกว่า 4000 แห่ง (รายงาน METAR และ TAF).

สถานีที่ดูได้จะแสดงไว้ด้วยจุดสีเหลืองและสีแดงบนแผนที่.

เลื่อนเมาส์ไปเหนือจุดเพื่อดูชื่อสถานี.

แล้วคลิกเพื่อดูสังเกตการณ์และการพยากรณ์สภาพอากาศ.

ในการเปลี่ยนแผนที่: คลิกที่ปุ่มสีเขียวที่มีกากบาทสีดำเพื่อซูมเข้า; ที่ปุ่มสีเขียวที่มีขีดเพื่อซูมออก; หรือที่ลูกศรสีเขียวเพื่อไปยังแผนที่ที่อยู่ติดกัน.


METAR-TAF: